Time;durP1;ratioP1;P1;durP2;ratioP2;P2;SDS_P1;SDS_P2;PMS_P1;PMS_P2;Temp;Humidity;BMP_temperature;BMP_pressure;BME280_temperature;BME280_humidity;BME280_pressure;Samples;Min_cycle;Max_cycle;Signal;HPM_P1;HPM_P2
2022/03/13 00:02:09;;;;;;;11.35;6.32;;;;;;;;;;6280581;22;20118;-84
2022/03/13 00:04:38;;;;;;;10.38;5.93;;;;;;;;;;6252804;22;20442;-83
2022/03/13 00:07:19;;;;;;;11.93;5.70;;;;;;;;;;6252487;22;20367;-83
2022/03/13 00:09:45;;;;;;;11.43;6.72;;;;;;;;;;6253117;22;20018;-83
2022/03/13 00:12:14;;;;;;;11.68;6.88;;;;;;;;;;6252110;22;20432;-83
2022/03/13 00:14:42;;;;;;;11.93;6.65;;;;;;;;;;6253299;22;20022;-83
2022/03/13 00:17:08;;;;;;;12.75;6.85;;;;;;;;;;6280420;22;20052;-83
2022/03/13 00:19:34;;;;;;;14.18;7.03;;;;;;;;;;6279303;22;20420;-84
2022/03/13 00:22:01;;;;;;;11.10;6.20;;;;;;;;;;6251610;22;20010;-83
2022/03/13 00:24:27;;;;;;;10.85;6.57;;;;;;;;;;6280560;22;20335;-83
2022/03/13 00:26:54;;;;;;;11.80;7.22;;;;;;;;;;6252605;22;20316;-81
2022/03/13 00:29:20;;;;;;;10.43;6.78;;;;;;;;;;6280417;22;20037;-83
2022/03/13 00:31:46;;;;;;;12.00;6.53;;;;;;;;;;6278992;22;20000;-82
2022/03/13 00:34:13;;;;;;;10.52;6.50;;;;;;;;;;6280035;22;20006;-82
2022/03/13 00:36:40;;;;;;;11.13;6.63;;;;;;;;;;6251754;22;20000;-82
2022/03/13 00:39:06;;;;;;;14.07;7.63;;;;;;;;;;6280306;22;19996;-81
2022/03/13 00:41:32;;;;;;;13.00;7.07;;;;;;;;;;6279315;22;20004;-81
2022/03/13 00:43:58;;;;;;;13.57;7.75;;;;;;;;;;6278937;22;20004;-81
2022/03/13 00:46:25;;;;;;;12.98;6.95;;;;;;;;;;6251748;22;20031;-81
2022/03/13 00:48:51;;;;;;;11.68;6.28;;;;;;;;;;6251675;22;20003;-81
2022/03/13 00:51:17;;;;;;;13.10;7.85;;;;;;;;;;6279595;22;20074;-81
2022/03/13 00:53:44;;;;;;;14.20;7.63;;;;;;;;;;6280296;22;20087;-80
2022/03/13 00:56:10;;;;;;;13.23;7.18;;;;;;;;;;6252694;22;20392;-81
2022/03/13 00:58:39;;;;;;;11.90;7.22;;;;;;;;;;6252923;22;19995;-82
2022/03/13 01:01:05;;;;;;;12.75;6.93;;;;;;;;;;6279658;22;20015;-81
2022/03/13 01:03:31;;;;;;;13.02;8.05;;;;;;;;;;6252955;22;20008;-81
2022/03/13 01:05:58;;;;;;;12.85;7.55;;;;;;;;;;6280029;22;20356;-80
2022/03/13 01:08:24;;;;;;;12.32;7.28;;;;;;;;;;6280211;22;20078;-81
2022/03/13 01:10:52;;;;;;;10.80;7.03;;;;;;;;;;6252709;22;20424;-81
2022/03/13 01:13:19;;;;;;;11.98;7.10;;;;;;;;;;6279742;22;20003;-82
2022/03/13 01:15:48;;;;;;;14.82;7.95;;;;;;;;;;6279822;22;20396;-81
2022/03/13 01:18:14;;;;;;;12.65;7.32;;;;;;;;;;6280009;22;19996;-80
2022/03/13 01:20:40;;;;;;;12.05;7.55;;;;;;;;;;6279877;22;20000;-80
2022/03/13 01:23:08;;;;;;;12.48;6.82;;;;;;;;;;6252338;22;20007;-81
2022/03/13 01:25:34;;;;;;;12.40;6.97;;;;;;;;;;6280463;22;20007;-81
2022/03/13 01:28:00;;;;;;;16.45;7.97;;;;;;;;;;6282110;22;19996;-80
2022/03/13 01:30:26;;;;;;;12.98;8.32;;;;;;;;;;6252653;22;19996;-81
2022/03/13 01:32:53;;;;;;;12.38;7.43;;;;;;;;;;6251695;22;20060;-81
2022/03/13 01:35:20;;;;;;;10.98;6.72;;;;;;;;;;6252614;22;20003;-81
2022/03/13 01:37:46;;;;;;;11.07;6.82;;;;;;;;;;6252339;22;20083;-82
2022/03/13 01:40:14;;;;;;;15.15;8.00;;;;;;;;;;6253729;22;20003;-82
2022/03/13 01:42:40;;;;;;;12.25;7.13;;;;;;;;;;6256043;22;20050;-82
2022/03/13 01:45:10;;;;;;;11.23;6.93;;;;;;;;;;6256615;22;20010;-83
2022/03/13 01:47:36;;;;;;;11.43;7.13;;;;;;;;;;6256731;22;20003;-81
2022/03/13 01:50:03;;;;;;;11.90;7.60;;;;;;;;;;6254746;22;20007;-82
2022/03/13 01:52:29;;;;;;;11.85;6.93;;;;;;;;;;6282510;22;20000;-81
2022/03/13 01:54:56;;;;;;;14.10;7.75;;;;;;;;;;6283304;22;20006;-82
2022/03/13 01:57:23;;;;;;;15.20;7.68;;;;;;;;;;6256431;22;20003;-81
2022/03/13 01:59:50;;;;;;;15.45;7.97;;;;;;;;;;6255093;22;20069;-81
2022/03/13 02:02:16;;;;;;;13.95;7.15;;;;;;;;;;6282455;22;20000;-81
2022/03/13 02:04:43;;;;;;;11.35;6.80;;;;;;;;;;6282958;22;20007;-81
2022/03/13 02:07:09;;;;;;;12.82;7.75;;;;;;;;;;6282222;22;20011;-82
2022/03/13 02:09:35;;;;;;;10.85;6.82;;;;;;;;;;6255968;22;20019;-81
2022/03/13 02:12:03;;;;;;;14.40;7.60;;;;;;;;;;6282815;22;20000;-81
2022/03/13 02:14:29;;;;;;;12.32;7.10;;;;;;;;;;6253141;22;20000;-81
2022/03/13 02:16:55;;;;;;;13.40;8.30;;;;;;;;;;6254270;22;20014;-81
2022/03/13 02:19:21;;;;;;;14.15;8.00;;;;;;;;;;6282123;22;20003;-82
2022/03/13 02:21:51;;;;;;;11.48;7.00;;;;;;;;;;6281748;22;20026;-81
2022/03/13 02:24:20;;;;;;;13.98;7.43;;;;;;;;;;6255394;22;20049;-82
2022/03/13 02:26:58;;;;;;;15.07;8.45;;;;;;;;;;6283338;22;20059;-81
2022/03/13 02:29:24;;;;;;;12.60;7.32;;;;;;;;;;6255023;22;20003;-81
2022/03/13 02:31:50;;;;;;;11.73;7.38;;;;;;;;;;6281416;22;20082;-83
2022/03/13 02:34:16;;;;;;;15.27;7.25;;;;;;;;;;6255429;22;20019;-81
2022/03/13 02:36:43;;;;;;;10.75;7.05;;;;;;;;;;6282225;22;20075;-82
2022/03/13 02:39:10;;;;;;;12.63;7.45;;;;;;;;;;6282974;22;20000;-82
2022/03/13 02:41:37;;;;;;;12.48;8.32;;;;;;;;;;6282330;22;20004;-81
2022/03/13 02:44:04;;;;;;;14.85;8.10;;;;;;;;;;6255345;22;20007;-82
2022/03/13 02:46:48;;;;;;;11.13;7.57;;;;;;;;;;6281781;22;20003;-81
2022/03/13 02:49:19;;;;;;;14.45;7.70;;;;;;;;;;6256517;22;20034;-82
2022/03/13 02:51:45;;;;;;;11.55;7.05;;;;;;;;;;6282347;22;20483;-82
2022/03/13 02:54:13;;;;;;;11.77;7.72;;;;;;;;;;6281058;22;20091;-83
2022/03/13 02:56:39;;;;;;;12.65;6.93;;;;;;;;;;6258497;22;20098;-81
2022/03/13 02:59:05;;;;;;;12.02;6.47;;;;;;;;;;6257404;22;20054;-82
2022/03/13 03:01:31;;;;;;;10.95;6.97;;;;;;;;;;6258219;22;20007;-82
2022/03/13 03:03:58;;;;;;;11.23;8.13;;;;;;;;;;6287795;22;20030;-83
2022/03/13 03:06:25;;;;;;;10.90;6.22;;;;;;;;;;6259470;22;20018;-82
2022/03/13 03:08:54;;;;;;;11.85;6.95;;;;;;;;;;6258660;22;20011;-83
2022/03/13 03:11:20;;;;;;;11.63;7.03;;;;;;;;;;6258701;22;20423;-82
2022/03/13 03:13:46;;;;;;;10.35;7.18;;;;;;;;;;6284414;22;20000;-82
2022/03/13 03:16:12;;;;;;;10.85;7.30;;;;;;;;;;6259081;22;20057;-82
2022/03/13 03:18:38;;;;;;;13.57;5.85;;;;;;;;;;6258601;22;19999;-81
2022/03/13 03:21:04;;;;;;;11.32;6.80;;;;;;;;;;6284614;22;20066;-82
2022/03/13 03:23:30;;;;;;;11.90;7.07;;;;;;;;;;6256528;22;20004;-82
2022/03/13 03:25:56;;;;;;;9.45;6.13;;;;;;;;;;6258500;22;20014;-83
2022/03/13 03:28:22;;;;;;;12.15;7.43;;;;;;;;;;6258297;22;20011;-82
2022/03/13 03:30:49;;;;;;;10.90;6.95;;;;;;;;;;6283332;22;19996;-82
2022/03/13 03:33:15;;;;;;;10.18;6.07;;;;;;;;;;6283708;22;20075;-82
2022/03/13 03:35:41;;;;;;;14.18;6.80;;;;;;;;;;6283656;22;19999;-83
2022/03/13 03:38:07;;;;;;;12.10;6.93;;;;;;;;;;6256145;22;20141;-81
2022/03/13 03:40:34;;;;;;;10.65;6.43;;;;;;;;;;6283907;22;19996;-82
2022/03/13 03:43:05;;;;;;;10.50;6.22;;;;;;;;;;6283453;22;20022;-82
2022/03/13 03:45:31;;;;;;;10.95;5.90;;;;;;;;;;6257491;22;20082;-81
2022/03/13 03:47:58;;;;;;;10.98;6.70;;;;;;;;;;6257086;22;20086;-82
2022/03/13 03:50:24;;;;;;;11.35;5.95;;;;;;;;;;6255927;22;20059;-82
2022/03/13 03:52:55;;;;;;;11.00;6.43;;;;;;;;;;6256326;22;20026;-81
2022/03/13 03:55:22;;;;;;;10.80;6.95;;;;;;;;;;6285087;22;19996;-82
2022/03/13 03:57:48;;;;;;;12.00;6.20;;;;;;;;;;6283276;22;19996;-81
2022/03/13 04:00:14;;;;;;;9.75;6.05;;;;;;;;;;6283942;22;20011;-82
2022/03/13 04:02:41;;;;;;;12.52;6.57;;;;;;;;;;6284250;22;20004;-81
2022/03/13 04:05:07;;;;;;;11.23;6.65;;;;;;;;;;6284088;22;20144;-81
2022/03/13 04:07:33;;;;;;;13.63;6.90;;;;;;;;;;6255166;22;20012;-82
2022/03/13 04:09:59;;;;;;;11.52;7.00;;;;;;;;;;6255411;22;20058;-81
2022/03/13 04:12:25;;;;;;;12.30;6.97;;;;;;;;;;6283620;22;20004;-83
2022/03/13 04:14:52;;;;;;;13.50;6.90;;;;;;;;;;6255436;22;20027;-82
2022/03/13 04:17:18;;;;;;;12.63;6.97;;;;;;;;;;6282786;22;19999;-82
2022/03/13 04:19:44;;;;;;;12.23;6.75;;;;;;;;;;6282564;22;20021;-81
2022/03/13 04:22:12;;;;;;;12.30;5.90;;;;;;;;;;6255619;22;20004;-83
2022/03/13 04:24:38;;;;;;;11.82;7.65;;;;;;;;;;6254766;22;20343;-82
2022/03/13 04:27:04;;;;;;;10.43;6.50;;;;;;;;;;6282036;22;20019;-82
2022/03/13 04:29:30;;;;;;;11.55;7.38;;;;;;;;;;6283098;22;20382;-82
2022/03/13 04:31:57;;;;;;;12.55;7.05;;;;;;;;;;6253832;22;20003;-82
2022/03/13 04:34:23;;;;;;;11.32;7.10;;;;;;;;;;6281561;22;20006;-82
2022/03/13 04:36:49;;;;;;;9.93;6.72;;;;;;;;;;6254064;22;20023;-82
2022/03/13 04:39:16;;;;;;;12.25;6.75;;;;;;;;;;6253097;22;20003;-81
2022/03/13 04:41:42;;;;;;;14.50;7.05;;;;;;;;;;6280530;22;20003;-82
2022/03/13 04:44:11;;;;;;;13.48;7.43;;;;;;;;;;6282611;22;19996;-83
2022/03/13 04:46:37;;;;;;;12.55;6.90;;;;;;;;;;6254087;22;20006;-82
2022/03/13 04:49:03;;;;;;;11.13;6.55;;;;;;;;;;6252888;22;20055;-83
2022/03/13 04:51:29;;;;;;;11.88;6.90;;;;;;;;;;6250724;22;20007;-83
2022/03/13 04:53:55;;;;;;;12.20;7.78;;;;;;;;;;6253848;22;20003;-82
2022/03/13 04:56:21;;;;;;;13.43;7.03;;;;;;;;;;6254794;22;20332;-83
2022/03/13 04:58:47;;;;;;;9.00;5.85;;;;;;;;;;6255337;22;20002;-83
2022/03/13 05:01:13;;;;;;;11.02;6.50;;;;;;;;;;6283186;22;20007;-82
2022/03/13 05:03:39;;;;;;;11.75;7.28;;;;;;;;;;6283265;22;20011;-82
2022/03/13 05:06:05;;;;;;;10.75;6.75;;;;;;;;;;6255243;22;20007;-83
2022/03/13 05:08:31;;;;;;;16.58;6.97;;;;;;;;;;6281868;22;19995;-82
2022/03/13 05:10:59;;;;;;;12.60;6.93;;;;;;;;;;6282439;22;20431;-82
2022/03/13 05:13:25;;;;;;;11.68;6.75;;;;;;;;;;6254250;22;20098;-82
2022/03/13 05:15:52;;;;;;;11.75;7.03;;;;;;;;;;6282525;22;20003;-82
2022/03/13 05:18:18;;;;;;;12.73;6.97;;;;;;;;;;6253810;22;20004;-82
2022/03/13 05:20:45;;;;;;;12.20;7.38;;;;;;;;;;6280745;22;20020;-82
2022/03/13 05:23:11;;;;;;;17.60;7.80;;;;;;;;;;6280372;22;19996;-83
2022/03/13 05:25:38;;;;;;;12.05;6.68;;;;;;;;;;6251341;22;20000;-82
2022/03/13 05:28:05;;;;;;;11.45;6.82;;;;;;;;;;6251641;22;20010;-83
2022/03/13 05:30:31;;;;;;;11.93;7.25;;;;;;;;;;6277664;22;19996;-83
2022/03/13 05:32:57;;;;;;;9.85;6.72;;;;;;;;;;6277678;22;20014;-82
2022/03/13 05:35:23;;;;;;;12.82;7.35;;;;;;;;;;6252020;22;20007;-82
2022/03/13 05:37:49;;;;;;;11.63;6.68;;;;;;;;;;6280177;22;20431;-82
2022/03/13 05:40:16;;;;;;;13.13;7.97;;;;;;;;;;6253097;22;20004;-82
2022/03/13 05:42:44;;;;;;;12.85;6.65;;;;;;;;;;6254261;22;20011;-81
2022/03/13 05:45:11;;;;;;;12.35;6.53;;;;;;;;;;6282478;22;20082;-81
2022/03/13 05:47:47;;;;;;;11.63;6.78;;;;;;;;;;6253188;22;20004;-83
2022/03/13 05:50:14;;;;;;;12.82;8.10;;;;;;;;;;6257268;22;20004;-81
2022/03/13 05:52:41;;;;;;;12.48;7.30;;;;;;;;;;6256367;22;20086;-82
2022/03/13 05:55:07;;;;;;;13.75;6.90;;;;;;;;;;6256256;22;20006;-82
2022/03/13 05:57:34;;;;;;;10.73;6.72;;;;;;;;;;6285542;22;19992;-83
2022/03/13 06:00:00;;;;;;;12.13;7.35;;;;;;;;;;6285700;22;20038;-83
2022/03/13 06:02:26;;;;;;;12.30;7.70;;;;;;;;;;6285399;22;20042;-82
2022/03/13 06:04:52;;;;;;;12.30;6.95;;;;;;;;;;6282315;22;20004;-81
2022/03/13 06:07:18;;;;;;;10.60;6.80;;;;;;;;;;6283765;22;20332;-81
2022/03/13 06:09:45;;;;;;;10.73;6.53;;;;;;;;;;6285507;22;20000;-82
2022/03/13 06:12:12;;;;;;;13.88;8.10;;;;;;;;;;6285442;22;20317;-81
2022/03/13 06:14:38;;;;;;;11.10;7.10;;;;;;;;;;6256893;22;20036;-81
2022/03/13 06:17:05;;;;;;;14.70;8.48;;;;;;;;;;6284863;22;20045;-80
2022/03/13 06:19:30;;;;;;;11.82;6.78;;;;;;;;;;6257646;22;20023;-81
2022/03/13 06:21:56;;;;;;;15.25;8.00;;;;;;;;;;6258521;22;20015;-82
2022/03/13 06:24:23;;;;;;;13.82;8.23;;;;;;;;;;6256862;22;20019;-82
2022/03/13 06:26:49;;;;;;;12.88;7.45;;;;;;;;;;6257884;22;20075;-83
2022/03/13 06:29:15;;;;;;;11.80;7.18;;;;;;;;;;6288118;22;20007;-82
2022/03/13 06:31:41;;;;;;;11.88;6.78;;;;;;;;;;6287919;22;20004;-84
2022/03/13 06:34:08;;;;;;;13.80;7.97;;;;;;;;;;6257740;22;20006;-84
2022/03/13 06:36:34;;;;;;;13.80;7.43;;;;;;;;;;6282675;22;20061;-82
2022/03/13 06:39:00;;;;;;;10.23;6.53;;;;;;;;;;6254955;22;20023;-83
2022/03/13 06:41:27;;;;;;;12.57;8.07;;;;;;;;;;6284105;22;20019;-81
2022/03/13 06:43:53;;;;;;;11.05;7.65;;;;;;;;;;6255416;22;20003;-82
2022/03/13 06:46:19;;;;;;;13.70;8.23;;;;;;;;;;6255615;22;20004;-84
2022/03/13 06:48:45;;;;;;;10.88;7.40;;;;;;;;;;6282945;22;20006;-82
2022/03/13 06:51:12;;;;;;;12.77;7.68;;;;;;;;;;6255023;22;20517;-82
2022/03/13 06:53:38;;;;;;;11.02;7.32;;;;;;;;;;6256931;22;20071;-82
2022/03/13 06:56:04;;;;;;;12.13;6.63;;;;;;;;;;6255943;22;19999;-83
2022/03/13 06:58:30;;;;;;;12.65;7.97;;;;;;;;;;6283731;22;19996;-82
2022/03/13 07:00:56;;;;;;;12.90;7.63;;;;;;;;;;6284279;22;20062;-83
2022/03/13 07:03:22;;;;;;;12.63;7.45;;;;;;;;;;6284257;22;20007;-82
2022/03/13 07:05:48;;;;;;;14.07;7.93;;;;;;;;;;6255835;22;20003;-82
2022/03/13 07:08:15;;;;;;;14.90;9.50;;;;;;;;;;6283758;22;20067;-82
2022/03/13 07:10:42;;;;;;;14.85;8.38;;;;;;;;;;6257365;22;20008;-82
2022/03/13 07:13:08;;;;;;;14.48;8.65;;;;;;;;;;6257429;22;20063;-83
2022/03/13 07:15:35;;;;;;;13.82;8.38;;;;;;;;;;6257558;22;20059;-82
2022/03/13 07:18:01;;;;;;;13.13;8.43;;;;;;;;;;6285480;22;20418;-82
2022/03/13 07:20:28;;;;;;;11.13;7.72;;;;;;;;;;6284534;22;20010;-82
2022/03/13 07:22:54;;;;;;;13.10;8.13;;;;;;;;;;6258946;22;20011;-82
2022/03/13 07:25:20;;;;;;;14.32;8.25;;;;;;;;;;6283389;22;19999;-83
2022/03/13 07:27:46;;;;;;;11.10;8.13;;;;;;;;;;6255454;22;20022;-82
2022/03/13 07:30:13;;;;;;;12.60;8.75;;;;;;;;;;6257450;22;20015;-83
2022/03/13 07:32:40;;;;;;;13.75;8.63;;;;;;;;;;6286128;22;20335;-81
2022/03/13 07:35:06;;;;;;;12.57;7.78;;;;;;;;;;6282962;22;20065;-82
2022/03/13 07:37:32;;;;;;;11.57;8.75;;;;;;;;;;6256067;22;20000;-83
2022/03/13 07:39:59;;;;;;;13.73;8.57;;;;;;;;;;6259041;22;19999;-82
2022/03/13 07:42:25;;;;;;;11.93;9.00;;;;;;;;;;6256165;22;20003;-82
2022/03/13 07:44:51;;;;;;;15.02;9.10;;;;;;;;;;6283226;22;19995;-82
2022/03/13 07:47:18;;;;;;;12.32;8.27;;;;;;;;;;6258721;22;20014;-82
2022/03/13 07:49:44;;;;;;;16.05;10.60;;;;;;;;;;6283125;22;19999;-81
2022/03/13 07:52:10;;;;;;;12.20;8.35;;;;;;;;;;6256698;22;20003;-83
2022/03/13 07:54:36;;;;;;;12.93;9.05;;;;;;;;;;6285360;22;20070;-83
2022/03/13 07:57:02;;;;;;;14.88;9.20;;;;;;;;;;6254330;22;20011;-82
2022/03/13 07:59:28;;;;;;;13.73;8.13;;;;;;;;;;6283547;22;20011;-83
2022/03/13 08:01:54;;;;;;;11.85;8.73;;;;;;;;;;6283280;22;20000;-83
2022/03/13 08:04:20;;;;;;;10.68;7.43;;;;;;;;;;6285508;22;20082;-83
2022/03/13 08:06:46;;;;;;;13.63;9.93;;;;;;;;;;6259412;22;20004;-84
2022/03/13 08:09:12;;;;;;;14.63;9.13;;;;;;;;;;6256609;22;20007;-83
2022/03/13 08:11:38;;;;;;;13.13;8.60;;;;;;;;;;6255376;22;20062;-82
2022/03/13 08:14:05;;;;;;;12.43;9.20;;;;;;;;;;6283145;22;20004;-83
2022/03/13 08:16:31;;;;;;;14.13;9.52;;;;;;;;;;6283005;22;20323;-83
2022/03/13 08:18:57;;;;;;;13.88;9.07;;;;;;;;;;6284895;22;20056;-83
2022/03/13 08:21:23;;;;;;;12.68;7.90;;;;;;;;;;6284410;22;19996;-83
2022/03/13 08:23:49;;;;;;;13.07;9.02;;;;;;;;;;6255161;22;20030;-83
2022/03/13 08:26:15;;;;;;;12.20;9.00;;;;;;;;;;6282595;22;20010;-80
2022/03/13 08:28:42;;;;;;;13.23;8.57;;;;;;;;;;6256330;22;20004;-83
2022/03/13 08:31:08;;;;;;;13.65;8.88;;;;;;;;;;6281774;22;20003;-83
2022/03/13 08:33:35;;;;;;;13.95;8.77;;;;;;;;;;6254843;22;20371;-83
2022/03/13 08:36:01;;;;;;;12.55;8.70;;;;;;;;;;6256376;22;20453;-80
2022/03/13 08:38:28;;;;;;;12.63;8.35;;;;;;;;;;6254711;22;20000;-81
2022/03/13 08:40:54;;;;;;;13.65;9.15;;;;;;;;;;6283511;22;20000;-81
2022/03/13 08:43:20;;;;;;;16.40;9.65;;;;;;;;;;6281755;22;20006;-82
2022/03/13 08:45:47;;;;;;;15.27;8.25;;;;;;;;;;6281477;22;20000;-80
2022/03/13 08:48:13;;;;;;;15.93;8.93;;;;;;;;;;6281490;22;20435;-81
2022/03/13 08:50:39;;;;;;;12.55;8.85;;;;;;;;;;6254629;22;19999;-80
2022/03/13 08:53:05;;;;;;;14.25;9.43;;;;;;;;;;6282444;22;20074;-82
2022/03/13 08:55:31;;;;;;;17.50;8.85;;;;;;;;;;6281667;22;19995;-81
2022/03/13 08:57:58;;;;;;;13.63;9.13;;;;;;;;;;6280290;22;20451;-80
2022/03/13 09:00:26;;;;;;;14.50;9.25;;;;;;;;;;6281069;22;20087;-81
2022/03/13 09:02:53;;;;;;;10.65;8.05;;;;;;;;;;6281905;22;20011;-81
2022/03/13 09:05:19;;;;;;;14.25;9.30;;;;;;;;;;6255267;22;19999;-81
2022/03/13 09:07:45;;;;;;;15.13;9.45;;;;;;;;;;6254761;22;20003;-81
2022/03/13 09:10:11;;;;;;;12.07;8.13;;;;;;;;;;6255401;22;20018;-81
2022/03/13 09:12:38;;;;;;;13.02;8.88;;;;;;;;;;6281787;22;20368;-82
2022/03/13 09:15:05;;;;;;;10.93;7.80;;;;;;;;;;6254140;22;19999;-81
2022/03/13 09:17:31;;;;;;;13.38;8.55;;;;;;;;;;6255068;22;20104;-80
2022/03/13 09:19:58;;;;;;;12.48;8.32;;;;;;;;;;6282138;22;20002;-82
2022/03/13 09:22:30;;;;;;;11.18;8.25;;;;;;;;;;6254831;22;20007;-83
2022/03/13 09:24:57;;;;;;;14.98;8.20;;;;;;;;;;6255449;22;20053;-82
2022/03/13 09:27:24;;;;;;;10.02;6.78;;;;;;;;;;6255380;22;20392;-82
2022/03/13 09:29:50;;;;;;;10.55;8.30;;;;;;;;;;6255321;22;20008;-82
2022/03/13 09:32:16;;;;;;;11.23;7.32;;;;;;;;;;6253838;22;20004;-83
2022/03/13 09:34:42;;;;;;;11.93;7.65;;;;;;;;;;6259024;22;20059;-82
2022/03/13 09:37:08;;;;;;;13.20;8.55;;;;;;;;;;6286343;22;20044;-81
2022/03/13 09:39:34;;;;;;;12.88;8.30;;;;;;;;;;6285329;22;19999;-83
2022/03/13 09:42:00;;;;;;;12.27;8.27;;;;;;;;;;6285265;22;20491;-82
2022/03/13 09:44:28;;;;;;;10.60;8.07;;;;;;;;;;6285723;22;20325;-81
2022/03/13 09:46:54;;;;;;;11.23;7.63;;;;;;;;;;6258585;22;20046;-81
2022/03/13 09:49:21;;;;;;;11.73;7.68;;;;;;;;;;6258891;22;20470;-80
2022/03/13 09:51:47;;;;;;;11.43;8.27;;;;;;;;;;6285718;22;20026;-81
2022/03/13 09:54:13;;;;;;;11.70;8.40;;;;;;;;;;6285051;22;20030;-82
2022/03/13 09:56:40;;;;;;;14.18;8.27;;;;;;;;;;6284780;22;20004;-81
2022/03/13 09:59:07;;;;;;;12.80;8.40;;;;;;;;;;6256969;22;20025;-83
2022/03/13 10:01:33;;;;;;;10.43;7.28;;;;;;;;;;6258098;22;20004;-82
2022/03/13 10:04:00;;;;;;;12.48;7.43;;;;;;;;;;6257137;22;20467;-83
2022/03/13 10:06:26;;;;;;;14.70;8.30;;;;;;;;;;6286024;22;20435;-81
2022/03/13 10:08:52;;;;;;;15.80;8.30;;;;;;;;;;6257981;22;20000;-82
2022/03/13 10:11:30;;;;;;;10.77;8.02;;;;;;;;;;6257787;22;20019;-82
2022/03/13 10:14:06;;;;;;;11.18;7.63;;;;;;;;;;6285799;22;20019;-82
2022/03/13 10:16:38;;;;;;;12.02;8.70;;;;;;;;;;6259210;22;20012;-82
2022/03/13 10:19:15;;;;;;;12.95;7.35;;;;;;;;;;6259054;22;20082;-79
2022/03/13 10:22:00;;;;;;;12.27;7.95;;;;;;;;;;6287002;22;20387;-82
2022/03/13 10:24:26;;;;;;;11.98;7.50;;;;;;;;;;6286495;22;20058;-82
2022/03/13 10:27:08;;;;;;;12.13;8.05;;;;;;;;;;6286997;22;20106;-83
2022/03/13 10:29:34;;;;;;;11.75;7.30;;;;;;;;;;6285653;22;20031;-81
2022/03/13 10:32:00;;;;;;;12.82;7.95;;;;;;;;;;6285911;22;20004;-81
2022/03/13 10:34:26;;;;;;;13.10;7.57;;;;;;;;;;6258920;22;20004;-82
2022/03/13 10:36:53;;;;;;;13.02;8.77;;;;;;;;;;6285565;22;20053;-83
2022/03/13 10:39:20;;;;;;;12.52;8.07;;;;;;;;;;6284746;22;20382;-81
2022/03/13 10:41:50;;;;;;;12.13;7.32;;;;;;;;;;6285534;22;20410;-82
2022/03/13 10:44:22;;;;;;;13.50;7.82;;;;;;;;;;6287874;22;20006;-82
2022/03/13 10:47:08;;;;;;;12.32;8.15;;;;;;;;;;6287534;22;20004;-82
2022/03/13 10:49:36;;;;;;;12.43;7.68;;;;;;;;;;6287239;22;20006;-81
2022/03/13 10:52:04;;;;;;;13.43;7.93;;;;;;;;;;6256554;22;20008;-83
2022/03/13 10:54:36;;;;;;;11.20;8.02;;;;;;;;;;6256942;22;19996;-83
2022/03/13 10:57:09;;;;;;;13.93;8.10;;;;;;;;;;6283806;22;20003;-82
2022/03/13 10:59:36;;;;;;;12.80;7.95;;;;;;;;;;6257129;22;20094;-82
2022/03/13 11:02:12;;;;;;;12.68;8.25;;;;;;;;;;6259205;22;20004;-84
2022/03/13 11:04:52;;;;;;;12.00;8.52;;;;;;;;;;6285098;22;19999;-83
2022/03/13 11:07:18;;;;;;;11.38;7.32;;;;;;;;;;6283941;22;20015;-82
2022/03/13 11:09:44;;;;;;;10.63;7.60;;;;;;;;;;6283659;22;19999;-82
2022/03/13 11:12:19;;;;;;;15.70;8.73;;;;;;;;;;6283305;22;20043;-82
2022/03/13 11:14:48;;;;;;;12.35;8.38;;;;;;;;;;6284608;22;19995;-82
2022/03/13 11:17:14;;;;;;;15.32;8.50;;;;;;;;;;6285650;22;19996;-83
2022/03/13 11:19:41;;;;;;;11.88;8.60;;;;;;;;;;6258250;22;20317;-83
2022/03/13 11:22:09;;;;;;;14.50;9.27;;;;;;;;;;6284086;22;20007;-82
2022/03/13 11:24:36;;;;;;;14.30;8.60;;;;;;;;;;6284950;22;20007;-83
2022/03/13 11:27:02;;;;;;;12.80;8.32;;;;;;;;;;6258277;22;20014;-83
2022/03/13 11:29:44;;;;;;;13.07;8.73;;;;;;;;;;6283770;22;20486;-83
2022/03/13 11:32:40;;;;;;;10.93;7.93;;;;;;;;;;6256605;22;20074;-84
2022/03/13 11:35:27;;;;;;;11.02;8.07;;;;;;;;;;6252092;22;20011;-83
2022/03/13 11:37:53;;;;;;;11.98;7.88;;;;;;;;;;6283359;22;20081;-84
2022/03/13 11:40:29;;;;;;;10.32;7.82;;;;;;;;;;6283579;22;19996;-84
2022/03/13 11:42:59;;;;;;;12.95;8.02;;;;;;;;;;6255408;22;20004;-83
2022/03/13 11:45:32;;;;;;;12.75;8.52;;;;;;;;;;6255300;22;20003;-83
2022/03/13 11:48:22;;;;;;;10.93;8.20;;;;;;;;;;6282936;22;20203;-82
2022/03/13 11:50:51;;;;;;;14.52;9.32;;;;;;;;;;6256615;22;20089;-84
2022/03/13 11:53:26;;;;;;;11.38;8.07;;;;;;;;;;6258492;22;19999;-83
2022/03/13 11:56:02;;;;;;;11.75;8.30;;;;;;;;;;6255802;22;20011;-84
2022/03/13 11:58:48;;;;;;;15.02;9.23;;;;;;;;;;6284842;22;19996;-84
2022/03/13 12:01:19;;;;;;;11.48;8.65;;;;;;;;;;6256527;22;20012;-83
2022/03/13 12:04:03;;;;;;;13.45;8.45;;;;;;;;;;6284810;22;20000;-83
2022/03/13 12:06:39;;;;;;;11.60;8.77;;;;;;;;;;6257100;22;20511;-83
2022/03/13 12:09:06;;;;;;;12.85;8.90;;;;;;;;;;6254813;22;20420;-82
2022/03/13 12:11:38;;;;;;;12.00;8.52;;;;;;;;;;6283847;22;20027;-84
2022/03/13 12:14:14;;;;;;;11.73;8.57;;;;;;;;;;6256804;22;20006;-84
2022/03/13 12:16:41;;;;;;;11.73;7.88;;;;;;;;;;6284713;22;20436;-82
2022/03/13 12:19:08;;;;;;;10.85;8.63;;;;;;;;;;6254884;22;20020;-83
2022/03/13 12:21:35;;;;;;;14.00;9.18;;;;;;;;;;6259460;22;20027;-83
2022/03/13 12:24:14;;;;;;;12.82;8.70;;;;;;;;;;6260630;22;20023;-82
2022/03/13 12:26:40;;;;;;;11.25;8.45;;;;;;;;;;6285827;22;20054;-85
2022/03/13 12:29:08;;;;;;;12.18;8.38;;;;;;;;;;6283721;22;20012;-83
2022/03/13 12:31:41;;;;;;;11.40;8.20;;;;;;;;;;6255489;22;20007;-84
2022/03/13 12:34:07;;;;;;;12.75;8.80;;;;;;;;;;6258737;22;20335;-82
2022/03/13 12:36:37;;;;;;;12.25;9.63;;;;;;;;;;6282789;22;20003;-82
2022/03/13 12:39:08;;;;;;;12.90;8.73;;;;;;;;;;6283120;22;20003;-83
2022/03/13 12:41:39;;;;;;;11.48;8.55;;;;;;;;;;6255813;22;20011;-84
2022/03/13 12:44:05;;;;;;;12.27;8.63;;;;;;;;;;6256966;22;20011;-83
2022/03/13 12:46:32;;;;;;;11.73;8.30;;;;;;;;;;6281766;22;19999;-83
2022/03/13 12:49:00;;;;;;;12.38;8.38;;;;;;;;;;6283609;22;20003;-84
2022/03/13 12:51:45;;;;;;;11.18;8.27;;;;;;;;;;6285491;22;20004;-84
2022/03/13 12:54:11;;;;;;;11.82;8.77;;;;;;;;;;6255614;22;20000;-83
2022/03/13 12:56:44;;;;;;;11.68;8.15;;;;;;;;;;6256413;22;20000;-84
2022/03/13 12:59:22;;;;;;;12.82;8.48;;;;;;;;;;6255535;22;20023;-84
2022/03/13 13:02:01;;;;;;;11.10;8.15;;;;;;;;;;6254670;22;20451;-83
2022/03/13 13:04:27;;;;;;;12.55;9.32;;;;;;;;;;6282240;22;20062;-83
2022/03/13 13:06:53;;;;;;;11.68;8.30;;;;;;;;;;6289120;22;20039;-83
2022/03/13 13:09:32;;;;;;;13.00;8.43;;;;;;;;;;6302455;22;20022;-82
2022/03/13 13:11:58;;;;;;;12.00;8.00;;;;;;;;;;6301926;22;20065;-87
2022/03/13 13:14:28;;;;;;;12.05;9.77;;;;;;;;;;6302596;22;20010;-85
2022/03/13 13:16:56;;;;;;;12.00;7.47;;;;;;;;;;6301442;22;20023;-83
2022/03/13 13:19:22;;;;;;;13.68;8.38;;;;;;;;;;6287060;22;20007;-83
2022/03/13 13:21:59;;;;;;;14.07;9.07;;;;;;;;;;6283071;22;20000;-84
2022/03/13 13:24:35;;;;;;;12.05;7.80;;;;;;;;;;6281922;22;20309;-82
2022/03/13 13:27:06;;;;;;;13.65;8.48;;;;;;;;;;6253146;22;20023;-83
2022/03/13 13:29:32;;;;;;;11.52;8.32;;;;;;;;;;6256046;22;20013;-84
2022/03/13 13:32:17;;;;;;;11.38;8.55;;;;;;;;;;6256870;22;20012;-82
2022/03/13 13:34:59;;;;;;;11.85;8.48;;;;;;;;;;6282937;22;20057;-83
2022/03/13 13:37:25;;;;;;;12.25;8.35;;;;;;;;;;6282372;22;19999;-84
2022/03/13 13:40:01;;;;;;;12.48;8.10;;;;;;;;;;6254722;22;20454;-83
2022/03/13 13:42:27;;;;;;;13.15;8.65;;;;;;;;;;6297391;22;20026;-83
2022/03/13 13:44:53;;;;;;;11.55;8.27;;;;;;;;;;6276285;22;20004;-87
2022/03/13 13:47:25;;;;;;;11.73;7.90;;;;;;;;;;6302363;22;20010;-83
2022/03/13 13:49:51;;;;;;;13.80;8.45;;;;;;;;;;6298326;22;20011;-83
2022/03/13 13:52:17;;;;;;;12.45;8.90;;;;;;;;;;6291225;22;20102;-83
2022/03/13 13:54:43;;;;;;;11.05;7.97;;;;;;;;;;6259110;22;20008;-84
2022/03/13 13:57:22;;;;;;;10.95;8.50;;;;;;;;;;6285120;22;20459;-82
2022/03/13 13:59:49;;;;;;;11.55;7.95;;;;;;;;;;6258701;22;20020;-82
2022/03/13 14:02:17;;;;;;;11.95;8.68;;;;;;;;;;6256270;22;20416;-83
2022/03/13 14:04:45;;;;;;;14.60;8.88;;;;;;;;;;6281619;22;20018;-83
2022/03/13 14:07:12;;;;;;;10.88;8.38;;;;;;;;;;6255195;22;20428;-83
2022/03/13 14:09:38;;;;;;;12.40;7.85;;;;;;;;;;6283060;22;20000;-84
2022/03/13 14:12:05;;;;;;;12.80;8.88;;;;;;;;;;6284049;22;20416;-83
2022/03/13 14:14:31;;;;;;;11.68;7.80;;;;;;;;;;6255075;22;20006;-82
2022/03/13 14:16:57;;;;;;;12.30;7.68;;;;;;;;;;6282651;22;20002;-83
2022/03/13 14:19:25;;;;;;;10.93;7.85;;;;;;;;;;6283390;22;20097;-83
2022/03/13 14:21:51;;;;;;;12.38;7.78;;;;;;;;;;6256673;22;20038;-83
2022/03/13 14:24:17;;;;;;;11.45;7.50;;;;;;;;;;6284593;22;20003;-84
2022/03/13 14:26:44;;;;;;;10.55;7.63;;;;;;;;;;6283519;22;20018;-84
2022/03/13 14:29:10;;;;;;;11.75;8.30;;;;;;;;;;6255933;22;20004;-82
2022/03/13 14:31:36;;;;;;;11.35;8.02;;;;;;;;;;6284944;22;19999;-81
2022/03/13 14:34:02;;;;;;;11.20;7.70;;;;;;;;;;6256980;22;20055;-83
2022/03/13 14:36:28;;;;;;;12.45;8.32;;;;;;;;;;6283335;22;20024;-82